sensor_id;sensor_type;location;lat;lon;timestamp;pressure;altitude;pressure_sealevel;temperature;humidity
19748;BME280;10032;51.386;12.516;2023-02-12T00:01:22;102050.97;;;7.99;100.00
19748;BME280;10032;51.386;12.516;2023-02-12T00:03:48;102048.84;;;7.95;100.00
19748;BME280;10032;51.386;12.516;2023-02-12T00:06:14;102048.38;;;7.91;100.00
19748;BME280;10032;51.386;12.516;2023-02-12T00:08:40;102050.44;;;7.89;100.00
19748;BME280;10032;51.386;12.516;2023-02-12T00:11:17;102045.22;;;7.88;100.00
19748;BME280;10032;51.386;12.516;2023-02-12T00:13:43;102048.38;;;7.91;100.00
19748;BME280;10032;51.386;12.516;2023-02-12T00:16:12;102045.84;;;7.90;100.00
19748;BME280;10032;51.386;12.516;2023-02-12T00:18:38;102047.72;;;7.89;100.00
19748;BME280;10032;51.386;12.516;2023-02-12T00:21:04;102048.38;;;7.91;100.00
19748;BME280;10032;51.386;12.516;2023-02-12T00:23:30;102043.81;;;7.92;100.00
19748;BME280;10032;51.386;12.516;2023-02-12T00:25:56;102031.81;;;7.94;100.00
19748;BME280;10032;51.386;12.516;2023-02-12T00:28:22;102033.84;;;7.92;100.00
19748;BME280;10032;51.386;12.516;2023-02-12T00:30:47;102046.31;;;7.93;100.00
19748;BME280;10032;51.386;12.516;2023-02-12T00:33:12;102030.13;;;7.93;100.00
19748;BME280;10032;51.386;12.516;2023-02-12T00:35:38;102044.28;;;7.95;100.00
19748;BME280;10032;51.386;12.516;2023-02-12T00:38:03;102039.69;;;7.96;100.00
19748;BME280;10032;51.386;12.516;2023-02-12T00:40:29;102046.31;;;7.93;100.00
19748;BME280;10032;51.386;12.516;2023-02-12T00:42:54;102042.78;;;7.93;100.00
19748;BME280;10032;51.386;12.516;2023-02-12T00:45:20;102048.38;;;7.91;100.00
19748;BME280;10032;51.386;12.516;2023-02-12T00:47:45;102054.63;;;7.92;100.00
19748;BME280;10032;51.386;12.516;2023-02-12T00:50:10;102058.13;;;7.92;100.00
19748;BME280;10032;51.386;12.516;2023-02-12T00:52:37;102057.50;;;7.90;100.00
19748;BME280;10032;51.386;12.516;2023-02-12T00:55:02;102056.09;;;7.94;100.00
19748;BME280;10032;51.386;12.516;2023-02-12T00:57:28;102068.56;;;7.95;100.00
19748;BME280;10032;51.386;12.516;2023-02-12T00:59:53;102065.88;;;7.95;100.00
19748;BME280;10032;51.386;12.516;2023-02-12T01:02:19;102066.69;;;7.96;100.00
19748;BME280;10032;51.386;12.516;2023-02-12T01:04:44;102063.34;;;7.94;100.00
19748;BME280;10032;51.386;12.516;2023-02-12T01:07:10;102064.19;;;7.94;100.00
19748;BME280;10032;51.386;12.516;2023-02-12T01:09:35;102068.19;;;7.98;100.00
19748;BME280;10032;51.386;12.516;2023-02-12T01:12:01;102067.81;;;8.01;100.00
19748;BME280;10032;51.386;12.516;2023-02-12T01:14:26;102072.94;;;7.96;100.00
19748;BME280;10032;51.386;12.516;2023-02-12T01:16:52;102073.75;;;7.97;100.00
19748;BME280;10032;51.386;12.516;2023-02-12T01:19:17;102070.88;;;7.98;100.00
19748;BME280;10032;51.386;12.516;2023-02-12T01:21:43;102065.19;;;7.93;100.00
19748;BME280;10032;51.386;12.516;2023-02-12T01:24:08;102066.22;;;7.92;100.00
19748;BME280;10032;51.386;12.516;2023-02-12T01:26:34;102066.41;;;7.91;100.00
19748;BME280;10032;51.386;12.516;2023-02-12T01:29:02;102075.00;;;7.94;100.00
19748;BME280;10032;51.386;12.516;2023-02-12T01:31:30;102069.59;;;7.94;100.00
19748;BME280;10032;51.386;12.516;2023-02-12T01:33:57;102073.28;;;7.93;100.00
19748;BME280;10032;51.386;12.516;2023-02-12T01:36:23;102075.81;;;7.95;100.00
19748;BME280;10032;51.386;12.516;2023-02-12T01:38:49;102082.06;;;7.95;100.00
19748;BME280;10032;51.386;12.516;2023-02-12T01:41:23;102070.41;;;7.95;100.00
19748;BME280;10032;51.386;12.516;2023-02-12T01:46:29;102066.22;;;7.92;100.00
19748;BME280;10032;51.386;12.516;2023-02-12T01:48:55;102066.91;;;7.94;100.00
19748;BME280;10032;51.386;12.516;2023-02-12T01:51:21;102056.75;;;7.96;100.00
19748;BME280;10032;51.386;12.516;2023-02-12T01:53:51;102067.53;;;7.96;100.00
19748;BME280;10032;51.386;12.516;2023-02-12T01:56:18;102058.81;;;7.94;100.00
19748;BME280;10032;51.386;12.516;2023-02-12T01:58:45;102066.91;;;7.94;100.00
19748;BME280;10032;51.386;12.516;2023-02-12T02:01:19;102061.75;;;7.99;100.00
19748;BME280;10032;51.386;12.516;2023-02-12T02:03:49;102060.53;;;8.02;100.00
19748;BME280;10032;51.386;12.516;2023-02-12T02:06:24;102053.94;;;8.04;100.00
19748;BME280;10032;51.386;12.516;2023-02-12T02:08:52;102061.03;;;8.05;100.00
19748;BME280;10032;51.386;12.516;2023-02-12T02:11:18;102062.72;;;8.06;100.00
19748;BME280;10032;51.386;12.516;2023-02-12T02:14:03;102066.44;;;8.05;100.00
19748;BME280;10032;51.386;12.516;2023-02-12T02:28:49;102048.94;;;8.01;100.00
19748;BME280;10032;51.386;12.516;2023-02-12T02:31:43;102048.19;;;8.07;100.00
19748;BME280;10032;51.386;12.516;2023-02-12T02:36:49;102049.56;;;8.03;100.00
19748;BME280;10032;51.386;12.516;2023-02-12T02:39:28;102056.00;;;8.02;100.00
19748;BME280;10032;51.386;12.516;2023-02-12T02:42:02;102053.13;;;8.04;100.00
19748;BME280;10032;51.386;12.516;2023-02-12T02:45:00;102062.25;;;8.03;100.00
19748;BME280;10032;51.386;12.516;2023-02-12T02:47:36;102063.06;;;8.03;100.00
19748;BME280;10032;51.386;12.516;2023-02-12T02:50:15;102058.69;;;8.02;100.00
19748;BME280;10032;51.386;12.516;2023-02-12T02:55:34;102056.63;;;8.04;100.00
19748;BME280;10032;51.386;12.516;2023-02-12T02:58:05;102054.78;;;8.05;100.00
19748;BME280;10032;51.386;12.516;2023-02-12T03:06:09;102064.72;;;8.04;100.00
19748;BME280;10032;51.386;12.516;2023-02-12T03:08:39;102073.13;;;8.09;100.00
19748;BME280;10032;51.386;12.516;2023-02-12T03:11:18;102072.66;;;8.06;100.00
19748;BME280;10032;51.386;12.516;2023-02-12T03:13:50;102076.84;;;8.08;100.00
19748;BME280;10032;51.386;12.516;2023-02-12T03:16:20;102079.72;;;8.07;100.00
19748;BME280;10032;51.386;12.516;2023-02-12T03:19:13;102077.69;;;8.09;100.00
19748;BME280;10032;51.386;12.516;2023-02-12T03:21:49;102074.81;;;8.10;100.00
19748;BME280;10032;51.386;12.516;2023-02-12T03:24:22;102095.38;;;8.11;100.00
19748;BME280;10032;51.386;12.516;2023-02-12T03:26:53;102087.47;;;8.10;100.00
19748;BME280;10032;51.386;12.516;2023-02-12T03:29:22;102103.47;;;8.11;100.00
19748;BME280;10032;51.386;12.516;2023-02-12T03:31:57;102093.97;;;8.15;100.00
19748;BME280;10032;51.386;12.516;2023-02-12T03:34:45;102099.75;;;8.12;100.00
19748;BME280;10032;51.386;12.516;2023-02-12T03:37:27;102104.97;;;8.14;100.00
19748;BME280;10032;51.386;12.516;2023-02-12T03:42:37;102093.13;;;8.15;100.00
19748;BME280;10032;51.386;12.516;2023-02-12T03:47:58;102108.50;;;8.14;100.00
19748;BME280;10032;51.386;12.516;2023-02-12T03:53:16;102113.72;;;8.16;100.00
19748;BME280;10032;51.386;12.516;2023-02-12T03:55:44;102113.34;;;8.19;100.00
19748;BME280;10032;51.386;12.516;2023-02-12T03:58:15;102119.41;;;8.21;100.00
19748;BME280;10032;51.386;12.516;2023-02-12T04:00:43;102119.41;;;8.21;100.00
19748;BME280;10032;51.386;12.516;2023-02-12T04:03:09;102118.56;;;8.20;100.00
19748;BME280;10032;51.386;12.516;2023-02-12T04:05:34;102120.28;;;8.21;100.00
19748;BME280;10032;51.386;12.516;2023-02-12T04:08:01;102129.38;;;8.20;100.00
19748;BME280;10032;51.386;12.516;2023-02-12T04:10:33;102123.78;;;8.22;100.00
19748;BME280;10032;51.386;12.516;2023-02-12T04:18:38;102135.25;;;8.24;100.00
19748;BME280;10032;51.386;12.516;2023-02-12T04:21:40;102141.47;;;8.24;100.00
19748;BME280;10032;51.386;12.516;2023-02-12T04:26:58;102151.47;;;8.24;100.00
19748;BME280;10032;51.386;12.516;2023-02-12T04:34:38;102147.91;;;8.23;100.00
19748;BME280;10032;51.386;12.516;2023-02-12T04:37:50;102153.00;;;8.18;100.00
19748;BME280;10032;51.386;12.516;2023-02-12T04:40:18;102151.97;;;8.19;100.00
19748;BME280;10032;51.386;12.516;2023-02-12T04:42:50;102147.59;;;8.18;100.00
19748;BME280;10032;51.386;12.516;2023-02-12T04:45:25;102152.84;;;8.20;100.00
19748;BME280;10032;51.386;12.516;2023-02-12T04:47:51;102157.69;;;8.24;100.00
19748;BME280;10032;51.386;12.516;2023-02-12T04:50:17;102156.00;;;8.23;100.00
19748;BME280;10032;51.386;12.516;2023-02-12T04:52:43;102159.75;;;8.22;100.00
19748;BME280;10032;51.386;12.516;2023-02-12T04:55:08;102157.38;;;8.19;100.00
19748;BME280;10032;51.386;12.516;2023-02-12T04:57:34;102162.75;;;8.19;100.00
19748;BME280;10032;51.386;12.516;2023-02-12T04:59:59;102162.63;;;8.21;100.00
19748;BME280;10032;51.386;12.516;2023-02-12T05:02:25;102166.81;;;8.23;100.00
19748;BME280;10032;51.386;12.516;2023-02-12T05:04:50;102163.09;;;8.24;100.00
19748;BME280;10032;51.386;12.516;2023-02-12T05:07:16;102159.56;;;8.24;100.00
19748;BME280;10032;51.386;12.516;2023-02-12T05:09:41;102156.66;;;8.25;100.00
19748;BME280;10032;51.386;12.516;2023-02-12T05:12:07;102156.00;;;8.23;100.00
19748;BME280;10032;51.386;12.516;2023-02-12T05:14:33;102163.09;;;8.24;100.00
19748;BME280;10032;51.386;12.516;2023-02-12T05:16:58;102154.81;;;8.26;100.00
19748;BME280;10032;51.386;12.516;2023-02-12T05:19:24;102154.63;;;8.27;100.00
19748;BME280;10032;51.386;12.516;2023-02-12T05:21:50;102158.53;;;8.25;100.00
19748;BME280;10032;51.386;12.516;2023-02-12T05:24:16;102151.47;;;8.24;100.00
19748;BME280;10032;51.386;12.516;2023-02-12T05:26:41;102161.22;;;8.25;100.00
19748;BME280;10032;51.386;12.516;2023-02-12T05:29:06;102162.63;;;8.21;100.00
19748;BME280;10032;51.386;12.516;2023-02-12T05:31:32;102160.56;;;8.23;100.00
19748;BME280;10032;51.386;12.516;2023-02-12T05:33:57;102161.06;;;8.26;100.00
19748;BME280;10032;51.386;12.516;2023-02-12T05:36:23;102164.41;;;8.28;100.00
19748;BME280;10032;51.386;12.516;2023-02-12T05:38:50;102153.25;;;8.31;100.00
19748;BME280;10032;51.386;12.516;2023-02-12T05:41:18;102161.34;;;8.31;100.00
19748;BME280;10032;51.386;12.516;2023-02-12T05:43:44;102155.66;;;8.26;100.00
19748;BME280;10032;51.386;12.516;2023-02-12T05:46:10;102155.66;;;8.26;100.00
19748;BME280;10032;51.386;12.516;2023-02-12T05:48:36;102160.66;;;8.29;100.00
19748;BME280;10032;51.386;12.516;2023-02-12T05:51:07;102169.44;;;8.31;100.00
19748;BME280;10032;51.386;12.516;2023-02-12T05:53:34;102178.53;;;8.30;100.00
19748;BME280;10032;51.386;12.516;2023-02-12T05:56:12;102173.13;;;8.30;100.00
19748;BME280;10032;51.386;12.516;2023-02-12T05:58:40;102173.53;;;8.27;100.00
19748;BME280;10032;51.386;12.516;2023-02-12T06:01:17;102178.53;;;8.30;100.00
19748;BME280;10032;51.386;12.516;2023-02-12T06:03:43;102182.09;;;8.31;100.00
19748;BME280;10032;51.386;12.516;2023-02-12T06:06:09;102187.66;;;8.29;100.00
19748;BME280;10032;51.386;12.516;2023-02-12T06:08:35;102193.06;;;8.29;100.00
19748;BME280;10032;51.386;12.516;2023-02-12T06:11:03;102185.16;;;8.28;100.00
19748;BME280;10032;51.386;12.516;2023-02-12T06:13:29;102182.28;;;8.29;100.00
19748;BME280;10032;51.386;12.516;2023-02-12T06:15:55;102187.66;;;8.29;100.00
19748;BME280;10032;51.386;12.516;2023-02-12T06:18:21;102188.06;;;8.26;100.00
19748;BME280;10032;51.386;12.516;2023-02-12T06:20:47;102185.06;;;8.21;100.00
19748;BME280;10032;51.386;12.516;2023-02-12T06:23:12;102190.78;;;8.18;100.00
19748;BME280;10032;51.386;12.516;2023-02-12T06:25:38;102197.88;;;8.19;100.00
19748;BME280;10032;51.386;12.516;2023-02-12T06:28:03;102196.34;;;8.25;100.00
19748;BME280;10032;51.386;12.516;2023-02-12T06:30:29;102201.56;;;8.26;100.00
19748;BME280;10032;51.386;12.516;2023-02-12T06:32:56;102212.16;;;8.28;100.00
19748;BME280;10032;51.386;12.516;2023-02-12T06:35:21;102203.59;;;8.24;100.00
19748;BME280;10032;51.386;12.516;2023-02-12T06:37:46;102202.75;;;8.24;100.00
19748;BME280;10032;51.386;12.516;2023-02-12T06:40:12;102213.00;;;8.28;100.00
19748;BME280;10032;51.386;12.516;2023-02-12T06:42:38;102213.34;;;8.25;100.00
19748;BME280;10032;51.386;12.516;2023-02-12T06:45:03;102218.22;;;8.30;100.00
19748;BME280;10032;51.386;12.516;2023-02-12T06:47:29;102217.38;;;8.29;100.00
19748;BME280;10032;51.386;12.516;2023-02-12T06:49:54;102223.81;;;8.28;100.00
19748;BME280;10032;51.386;12.516;2023-02-12T06:52:20;102217.19;;;8.31;100.00
19748;BME280;10032;51.386;12.516;2023-02-12T06:54:47;102232.38;;;8.32;100.00
19748;BME280;10032;51.386;12.516;2023-02-12T06:57:12;102230.06;;;8.29;100.00
19748;BME280;10032;51.386;12.516;2023-02-12T06:59:37;102222.94;;;8.28;100.00
19748;BME280;10032;51.386;12.516;2023-02-12T07:02:03;102231.97;;;8.20;100.00
19748;BME280;10032;51.386;12.516;2023-02-12T07:04:28;102232.97;;;8.19;100.00
19748;BME280;10032;51.386;12.516;2023-02-12T07:06:54;102231.28;;;8.18;100.00
19748;BME280;10032;51.386;12.516;2023-02-12T07:09:19;102238.69;;;8.24;100.00
19748;BME280;10032;51.386;12.516;2023-02-12T07:11:45;102241.38;;;8.24;100.00
19748;BME280;10032;51.386;12.516;2023-02-12T07:14:14;102246.59;;;8.26;100.00
19748;BME280;10032;51.386;12.516;2023-02-12T07:16:40;102245.41;;;8.28;100.00
19748;BME280;10032;51.386;12.516;2023-02-12T07:19:06;102249.13;;;8.27;100.00
19748;BME280;10032;51.386;12.516;2023-02-12T07:21:31;102249.94;;;8.28;100.00
19748;BME280;10032;51.386;12.516;2023-02-12T07:23:57;102251.28;;;8.32;100.00
19748;BME280;10032;51.386;12.516;2023-02-12T07:26:22;102257.13;;;8.35;100.00
19748;BME280;10032;51.386;12.516;2023-02-12T07:28:49;102255.47;;;8.34;100.00
19748;BME280;10032;51.386;12.516;2023-02-12T07:31:18;102263.75;;;8.33;100.00
19748;BME280;10032;51.386;12.516;2023-02-12T07:33:44;102266.44;;;8.33;100.00
19748;BME280;10032;51.386;12.516;2023-02-12T07:36:12;102264.59;;;8.33;100.00
19748;BME280;10032;51.386;12.516;2023-02-12T07:38:40;102260.22;;;8.32;100.00
19748;BME280;10032;51.386;12.516;2023-02-12T07:41:18;102265.91;;;8.37;100.00
19748;BME280;10032;51.386;12.516;2023-02-12T07:43:47;102273.34;;;8.35;100.00
19748;BME280;10032;51.386;12.516;2023-02-12T07:46:19;102274.66;;;8.39;100.00
19748;BME280;10032;51.386;12.516;2023-02-12T07:48:45;102274.31;;;8.42;100.00
19748;BME280;10032;51.386;12.516;2023-02-12T07:51:13;102277.00;;;8.42;100.00
19748;BME280;10032;51.386;12.516;2023-02-12T07:53:40;102282.03;;;8.45;100.00
19748;BME280;10032;51.386;12.516;2023-02-12T07:56:14;102286.78;;;8.43;100.00
19748;BME280;10032;51.386;12.516;2023-02-12T07:58:41;102288.09;;;8.47;100.00
19748;BME280;10032;51.386;12.516;2023-02-12T08:01:11;102287.06;;;8.48;100.00
19748;BME280;10032;51.386;12.516;2023-02-12T08:03:37;102288.94;;;8.48;100.00
19748;BME280;10032;51.386;12.516;2023-02-12T08:06:12;102284.38;;;8.48;100.00
19748;BME280;10032;51.386;12.516;2023-02-12T08:08:37;102291.91;;;8.53;100.00
19748;BME280;10032;51.386;12.516;2023-02-12T08:11:07;102284.28;;;8.56;100.00
19748;BME280;10032;51.386;12.516;2023-02-12T08:13:34;102295.38;;;8.61;100.00
19748;BME280;10032;51.386;12.516;2023-02-12T08:16:04;102290.44;;;8.65;100.00
19748;BME280;10032;51.386;12.516;2023-02-12T08:18:31;102293.81;;;8.67;100.00
19748;BME280;10032;51.386;12.516;2023-02-12T08:21:07;102297.34;;;8.67;100.00
19748;BME280;10032;51.386;12.516;2023-02-12T08:23:33;102299.03;;;8.68;100.00
19748;BME280;10032;51.386;12.516;2023-02-12T08:26:14;102284.50;;;8.69;100.00
19748;BME280;10032;51.386;12.516;2023-02-12T08:28:45;102296.81;;;8.72;100.00
19748;BME280;10032;51.386;12.516;2023-02-12T08:31:22;102304.06;;;8.71;100.00
19748;BME280;10032;51.386;12.516;2023-02-12T08:33:49;102301.81;;;8.75;100.00
19748;BME280;10032;51.386;12.516;2023-02-12T08:36:17;102302.00;;;8.73;100.00
19748;BME280;10032;51.386;12.516;2023-02-12T08:38:44;102307.91;;;8.77;100.00
19748;BME280;10032;51.386;12.516;2023-02-12T08:41:12;102306.88;;;8.78;100.00
19748;BME280;10032;51.386;12.516;2023-02-12T08:43:39;102312.09;;;8.79;100.00
19748;BME280;10032;51.386;12.516;2023-02-12T08:46:08;102299.22;;;8.81;100.00
19748;BME280;10032;51.386;12.516;2023-02-12T08:48:33;102311.88;;;8.81;100.00
19748;BME280;10032;51.386;12.516;2023-02-12T08:53:31;102307.63;;;8.86;100.00
19748;BME280;10032;51.386;12.516;2023-02-12T08:55:56;102318.16;;;8.81;100.00
19748;BME280;10032;51.386;12.516;2023-02-12T08:58:22;102315.56;;;8.88;100.00
19748;BME280;10032;51.386;12.516;2023-02-12T09:00:47;102310.59;;;8.91;100.00
19748;BME280;10032;51.386;12.516;2023-02-12T09:03:13;102312.09;;;8.94;100.00
19748;BME280;10032;51.386;12.516;2023-02-12T09:05:39;102310.59;;;8.91;100.00
19748;BME280;10032;51.386;12.516;2023-02-12T09:08:05;102323.28;;;8.91;100.00
19748;BME280;10032;51.386;12.516;2023-02-12T09:10:31;102324.22;;;8.98;100.00
19748;BME280;10032;51.386;12.516;2023-02-12T09:12:56;102331.78;;;9.02;100.00
19748;BME280;10032;51.386;12.516;2023-02-12T09:15:22;102327.50;;;9.08;100.00
19748;BME280;10032;51.386;12.516;2023-02-12T09:17:47;102327.97;;;9.11;100.00
19748;BME280;10032;51.386;12.516;2023-02-12T09:20:12;102322.81;;;9.16;100.00
19748;BME280;10032;51.386;12.516;2023-02-12T09:22:38;102328.88;;;9.18;100.00
19748;BME280;10032;51.386;12.516;2023-02-12T09:25:05;102337.00;;;9.18;100.00
19748;BME280;10032;51.386;12.516;2023-02-12T09:27:32;102341.19;;;9.21;100.00
19748;BME280;10032;51.386;12.516;2023-02-12T09:29:58;102338.31;;;9.22;100.00
19748;BME280;10032;51.386;12.516;2023-02-12T09:32:23;102343.53;;;9.24;100.00
19748;BME280;10032;51.386;12.516;2023-02-12T09:34:49;102343.31;;;9.25;100.00
19748;BME280;10032;51.386;12.516;2023-02-12T09:37:14;102348.72;;;9.25;100.00
19748;BME280;10032;51.386;12.516;2023-02-12T09:39:40;102356.84;;;9.25;100.00
19748;BME280;10032;51.386;12.516;2023-02-12T09:42:17;102351.38;;;9.19;100.00
19748;BME280;10032;51.386;12.516;2023-02-12T09:45:22;102364.22;;;9.17;100.00
19748;BME280;10032;51.386;12.516;2023-02-12T09:50:45;102361.63;;;9.23;100.00
19748;BME280;10032;51.386;12.516;2023-02-12T09:53:18;102359.53;;;9.25;100.00
19748;BME280;10032;51.386;12.516;2023-02-12T09:55:45;102360.09;;;9.35;100.00
19748;BME280;10032;51.386;12.516;2023-02-12T09:58:39;102355.66;;;9.42;100.00
19748;BME280;10032;51.386;12.516;2023-02-12T10:01:14;102365.59;;;9.56;100.00
19748;BME280;10032;51.386;12.516;2023-02-12T10:03:40;102366.91;;;9.60;100.00
19748;BME280;10032;51.386;12.516;2023-02-12T10:06:19;102359.63;;;9.61;100.00
19748;BME280;10032;51.386;12.516;2023-02-12T10:11:38;102364.84;;;9.48;100.00
19748;BME280;10032;51.386;12.516;2023-02-12T10:15:07;102370.66;;;9.45;100.00
19748;BME280;10032;51.386;12.516;2023-02-12T10:17:32;102361.34;;;9.47;100.00
19748;BME280;10032;51.386;12.516;2023-02-12T10:20:14;102369.06;;;9.50;100.00
19748;BME280;10032;51.386;12.516;2023-02-12T10:28:10;102359.09;;;9.51;100.00
19748;BME280;10032;51.386;12.516;2023-02-12T10:33:15;102374.84;;;9.62;100.00
19748;BME280;10032;51.386;12.516;2023-02-12T10:35:46;102368.75;;;9.60;100.00
19748;BME280;10032;51.386;12.516;2023-02-12T10:38:18;102365.50;;;9.64;100.00
19748;BME280;10032;51.386;12.516;2023-02-12T10:40:45;102370.91;;;9.64;100.00
19748;BME280;10032;51.386;12.516;2023-02-12T10:43:12;102369.25;;;9.63;100.00
19748;BME280;10032;51.386;12.516;2023-02-12T10:45:39;102360.47;;;9.61;100.00
19748;BME280;10032;51.386;12.516;2023-02-12T10:48:16;102369.47;;;9.68;100.00
19748;BME280;10032;51.386;12.516;2023-02-12T10:53:31;102364.06;;;9.68;100.00
19748;BME280;10032;51.386;12.516;2023-02-12T10:56:22;102359.41;;;9.77;100.00
19748;BME280;10032;51.386;12.516;2023-02-12T11:01:17;102351.34;;;9.83;100.00
19748;BME280;10032;51.386;12.516;2023-02-12T11:03:44;102348.53;;;9.91;100.00
19748;BME280;10032;51.386;12.516;2023-02-12T11:06:20;102357.56;;;9.98;100.00
19748;BME280;10032;51.386;12.516;2023-02-12T11:08:46;102354.78;;;10.06;100.00
19748;BME280;10032;51.386;12.516;2023-02-12T11:11:17;102351.69;;;10.09;100.00
19748;BME280;10032;51.386;12.516;2023-02-12T11:14:01;102343.94;;;10.06;100.00
19748;BME280;10032;51.386;12.516;2023-02-12T11:16:29;102345.31;;;10.02;100.00
19748;BME280;10032;51.386;12.516;2023-02-12T11:19:00;102343.09;;;10.06;100.00
19748;BME280;10032;51.386;12.516;2023-02-12T11:21:26;102347.19;;;10.16;100.00
19748;BME280;10032;51.386;12.516;2023-02-12T11:23:51;102348.19;;;10.15;100.00
19748;BME280;10032;51.386;12.516;2023-02-12T11:28:58;102345.44;;;10.09;100.00
19748;BME280;10032;51.386;12.516;2023-02-12T11:31:29;102349.63;;;10.11;100.00
19748;BME280;10032;51.386;12.516;2023-02-12T11:34:17;102340.81;;;10.24;100.00
19748;BME280;10032;51.386;12.516;2023-02-12T11:36:48;102344.59;;;10.29;100.00
19748;BME280;10032;51.386;12.516;2023-02-12T11:41:49;102349.16;;;10.29;100.00
19748;BME280;10032;51.386;12.516;2023-02-12T11:44:20;102350.66;;;10.31;100.00
19748;BME280;10032;51.386;12.516;2023-02-12T11:46:50;102340.41;;;10.27;100.00
19748;BME280;10032;51.386;12.516;2023-02-12T11:49:21;102343.09;;;10.27;100.00
19748;BME280;10032;51.386;12.516;2023-02-12T11:51:48;102336.72;;;10.34;100.00
19748;BME280;10032;51.386;12.516;2023-02-12T11:54:40;102340.06;;;10.36;100.00
19748;BME280;10032;51.386;12.516;2023-02-12T11:57:33;102340.91;;;10.37;100.00
19748;BME280;10032;51.386;12.516;2023-02-12T11:59:56;102345.97;;;10.40;100.00
19748;BME280;10032;51.386;12.516;2023-02-12T12:02:26;102339.69;;;10.39;100.00
19748;BME280;10032;51.386;12.516;2023-02-12T12:05:07;102331.31;;;10.34;100.00
19748;BME280;10032;51.386;12.516;2023-02-12T12:07:35;102340.41;;;10.27;100.00
19748;BME280;10032;51.386;12.516;2023-02-12T12:10:16;102344.94;;;10.20;100.00
19748;BME280;10032;51.386;12.516;2023-02-12T12:12:51;102345.22;;;10.10;100.00
19748;BME280;10032;51.386;12.516;2023-02-12T12:15:28;102347.66;;;10.05;100.00
19748;BME280;10032;51.386;12.516;2023-02-12T12:21:16;102348.59;;;10.12;100.00
19748;BME280;10032;51.386;12.516;2023-02-12T12:23:57;102352.88;;;10.21;100.00
19748;BME280;10032;51.386;12.516;2023-02-12T12:26:27;102348.19;;;10.15;100.00
19748;BME280;10032;51.386;12.516;2023-02-12T12:29:06;102352.78;;;10.15;100.00
19748;BME280;10032;51.386;12.516;2023-02-12T12:31:46;102346.94;;;10.11;100.00
19748;BME280;10032;51.386;12.516;2023-02-12T12:34:21;102344.84;;;10.13;100.00
19748;BME280;10032;51.386;12.516;2023-02-12T12:37:18;102339.53;;;10.05;100.00
19748;BME280;10032;51.386;12.516;2023-02-12T12:40:30;102344.69;;;10.00;100.00
19748;BME280;10032;51.386;12.516;2023-02-12T12:45:31;102337.78;;;9.98;100.00
19748;BME280;10032;51.386;12.516;2023-02-12T12:48:22;102329.44;;;9.99;100.00
19748;BME280;10032;51.386;12.516;2023-02-12T13:03:53;102332.56;;;9.96;100.00
19748;BME280;10032;51.386;12.516;2023-02-12T13:09:28;102323.44;;;10.18;100.00
19748;BME280;10032;51.386;12.516;2023-02-12T13:12:05;102319.16;;;10.30;100.00
19748;BME280;10032;51.386;12.516;2023-02-12T13:14:43;102316.19;;;10.46;100.00
19748;BME280;10032;51.386;12.516;2023-02-12T13:17:20;102318.16;;;10.59;100.00
19748;BME280;10032;51.386;12.516;2023-02-12T13:25:20;102312.06;;;10.78;100.00
19748;BME280;10032;51.386;12.516;2023-02-12T13:27:47;102304.13;;;10.76;100.00
19748;BME280;10032;51.386;12.516;2023-02-12T13:30:21;102310.59;;;10.75;100.00
19748;BME280;10032;51.386;12.516;2023-02-12T13:32:49;102317.00;;;10.68;100.00
19748;BME280;10032;51.386;12.516;2023-02-12T13:35:21;102312.41;;;10.68;100.00
19748;BME280;10032;51.386;12.516;2023-02-12T13:37:51;102309.91;;;10.67;100.00
19748;BME280;10032;51.386;12.516;2023-02-12T13:40:22;102307.03;;;10.75;100.00
19748;BME280;10032;51.386;12.516;2023-02-12T13:50:38;102309.19;;;10.86;100.00
19748;BME280;10032;51.386;12.516;2023-02-12T13:58:53;102308.06;;;11.01;100.00
19748;BME280;10032;51.386;12.516;2023-02-12T14:04:24;102303.44;;;11.02;100.00
19748;BME280;10032;51.386;12.516;2023-02-12T14:06:57;102314.28;;;10.95;100.00
19748;BME280;10032;51.386;12.516;2023-02-12T14:12:00;102315.47;;;10.86;100.00
19748;BME280;10032;51.386;12.516;2023-02-12T14:14:47;102321.69;;;10.80;100.00
19748;BME280;10032;51.386;12.516;2023-02-12T14:20:21;102323.72;;;10.78;100.00
19748;BME280;10032;51.386;12.516;2023-02-12T14:27:52;102315.59;;;10.78;100.00
19748;BME280;10032;51.386;12.516;2023-02-12T14:31:16;102324.59;;;10.79;100.00
19748;BME280;10032;51.386;12.516;2023-02-12T14:33:20;102316.41;;;10.72;100.00
19748;BME280;10032;51.386;12.516;2023-02-12T14:35:48;102323.66;;;10.65;100.00
19748;BME280;10032;51.386;12.516;2023-02-12T14:40:42;102321.53;;;10.61;100.00
19748;BME280;10032;51.386;12.516;2023-02-12T14:43:33;102315.91;;;10.62;100.00
19748;BME280;10032;51.386;12.516;2023-02-12T14:51:39;102318.22;;;10.65;100.00
19748;BME280;10032;51.386;12.516;2023-02-12T14:54:14;102320.50;;;10.62;100.00
19748;BME280;10032;51.386;12.516;2023-02-12T14:56:45;102320.28;;;10.63;100.00
19748;BME280;10032;51.386;12.516;2023-02-12T14:59:18;102310.47;;;10.62;100.00
19748;BME280;10032;51.386;12.516;2023-02-12T15:01:46;102315.91;;;10.62;100.00
19748;BME280;10032;51.386;12.516;2023-02-12T15:04:34;102327.41;;;10.64;100.00
19748;BME280;10032;51.386;12.516;2023-02-12T15:07:09;102329.00;;;10.59;100.00
19748;BME280;10032;51.386;12.516;2023-02-12T15:09:51;102329.59;;;10.54;100.00
19748;BME280;10032;51.386;12.516;2023-02-12T15:12:21;102329.00;;;10.59;100.00